createdAt,value
2022-10-11T00:02:08.579Z,39.54
2022-10-11T00:04:36.501Z,39.85
2022-10-11T00:07:04.453Z,39.75
2022-10-11T00:09:33.835Z,39.48
2022-10-11T00:12:01.852Z,39.58
2022-10-11T00:14:29.971Z,39.68
2022-10-11T00:16:57.857Z,39.69
2022-10-11T00:19:25.825Z,39.66
2022-10-11T00:21:53.705Z,39.69
2022-10-11T00:24:21.597Z,39.64
2022-10-11T00:26:50.906Z,39.72
2022-10-11T00:29:18.884Z,39.71
2022-10-11T00:31:46.811Z,39.34
2022-10-11T00:34:17.208Z,39.65
2022-10-11T00:36:45.620Z,39.76
2022-10-11T00:39:14.476Z,39.75
2022-10-11T00:41:42.924Z,39.66
2022-10-11T00:44:15.594Z,39.73
2022-10-11T00:46:45.735Z,39.49
2022-10-11T00:49:20.584Z,39.69
2022-10-11T00:51:53.649Z,39.89
2022-10-11T00:54:25.292Z,39.65
2022-10-11T00:56:57.376Z,39.61
2022-10-11T00:59:32.340Z,39.66
2022-10-11T01:02:00.478Z,39.64
2022-10-11T01:04:28.465Z,39.76
2022-10-11T01:06:57.048Z,39.61
2022-10-11T01:09:25.994Z,39.70
2022-10-11T01:11:55.630Z,39.62
2022-10-11T01:14:40.093Z,39.35
2022-10-11T01:17:18.362Z,39.63
2022-10-11T01:19:59.328Z,39.48
2022-10-11T01:22:47.739Z,39.61
2022-10-11T01:25:22.290Z,39.30
2022-10-11T01:28:03.778Z,39.01
2022-10-11T01:30:35.329Z,39.23
2022-10-11T01:33:18.905Z,39.06
2022-10-11T01:35:54.618Z,39.33
2022-10-11T01:38:29.976Z,39.31
2022-10-11T01:41:03.197Z,39.26
2022-10-11T01:43:32.326Z,39.29
2022-10-11T01:46:03.916Z,39.05
2022-10-11T01:48:32.108Z,39.10
2022-10-11T01:51:04.417Z,39.54
2022-10-11T01:53:46.692Z,38.98
2022-10-11T01:56:40.298Z,39.36
2022-10-11T01:59:23.427Z,39.13
2022-10-11T02:02:02.538Z,39.22
2022-10-11T02:04:34.857Z,39.18
2022-10-11T02:07:09.008Z,39.26
2022-10-11T02:09:43.995Z,39.47
2022-10-11T02:12:14.290Z,39.30
2022-10-11T02:14:46.646Z,39.24
2022-10-11T02:17:20.751Z,39.35
2022-10-11T02:19:53.380Z,39.53
2022-10-11T02:22:28.072Z,39.41
2022-10-11T02:25:00.119Z,39.34
2022-10-11T02:27:32.128Z,39.49
2022-10-11T02:30:03.512Z,39.47
2022-10-11T02:32:34.299Z,39.71
2022-10-11T02:35:03.997Z,39.49
2022-10-11T02:37:33.890Z,39.63
2022-10-11T02:40:07.643Z,39.59
2022-10-11T02:42:39.882Z,39.71
2022-10-11T02:45:14.283Z,39.92
2022-10-11T02:47:44.672Z,39.60
2022-10-11T02:50:13.421Z,39.87
2022-10-11T02:52:41.556Z,39.70
2022-10-11T02:55:10.843Z,39.59
2022-10-11T02:57:38.708Z,39.87
2022-10-11T03:00:09.064Z,39.78
2022-10-11T03:02:37.021Z,39.66
2022-10-11T03:05:06.678Z,39.59
2022-10-11T03:07:34.618Z,39.62
2022-10-11T03:10:02.483Z,39.71
2022-10-11T03:12:30.397Z,39.54
2022-10-11T03:14:58.337Z,39.63
2022-10-11T03:17:41.035Z,39.74
2022-10-11T03:20:11.156Z,39.84
2022-10-11T03:22:39.051Z,39.77
2022-10-11T03:25:07.410Z,39.78
2022-10-11T03:27:35.376Z,39.67
2022-10-11T03:30:03.413Z,39.49
2022-10-11T03:32:31.403Z,40.00
2022-10-11T03:34:59.358Z,39.75
2022-10-11T03:37:28.825Z,39.69
2022-10-11T03:39:56.690Z,39.67
2022-10-11T03:42:24.595Z,39.71
2022-10-11T03:44:52.521Z,39.91
2022-10-11T03:47:20.432Z,39.82
2022-10-11T03:49:48.347Z,39.74
2022-10-11T03:52:16.283Z,39.82
2022-10-11T03:54:45.552Z,39.64
2022-10-11T03:57:13.440Z,39.78
2022-10-11T03:59:41.356Z,39.79
2022-10-11T04:02:09.421Z,39.76
2022-10-11T04:04:37.425Z,39.85
2022-10-11T04:07:05.369Z,39.91
2022-10-11T04:09:33.284Z,39.62
2022-10-11T04:12:02.683Z,39.94
2022-10-11T04:14:30.785Z,39.83
2022-10-11T04:17:00.468Z,40.03
2022-10-11T04:19:29.462Z,39.76
2022-10-11T04:21:57.386Z,40.00
2022-10-11T04:24:25.456Z,40.16
2022-10-11T04:26:53.363Z,39.80
2022-10-11T04:29:22.795Z,39.91
2022-10-11T04:31:50.979Z,39.90
2022-10-11T04:34:19.133Z,40.08
2022-10-11T04:36:49.919Z,40.21
2022-10-11T04:39:18.555Z,39.86
2022-10-11T04:41:46.517Z,39.90
2022-10-11T04:44:14.454Z,39.86
2022-10-11T04:46:43.775Z,40.00
2022-10-11T04:49:11.725Z,39.89
2022-10-11T04:51:39.627Z,39.91
2022-10-11T04:54:07.587Z,39.89
2022-10-11T04:56:35.432Z,39.77
2022-10-11T04:59:03.309Z,39.70
2022-10-11T05:01:31.221Z,39.73
2022-10-11T05:04:00.500Z,39.59
2022-10-11T05:06:28.417Z,39.82
2022-10-11T05:08:56.372Z,39.94
2022-10-11T05:11:24.334Z,39.44
2022-10-11T05:13:52.216Z,39.52
2022-10-11T05:16:20.114Z,39.61
2022-10-11T05:18:48.067Z,39.61
2022-10-11T05:21:19.642Z,39.46
2022-10-11T05:23:49.252Z,39.19
2022-10-11T05:26:17.781Z,39.62
2022-10-11T05:28:46.045Z,39.35
2022-10-11T05:31:14.011Z,39.32
2022-10-11T05:33:42.149Z,39.37
2022-10-11T05:36:10.704Z,39.14
2022-10-11T05:38:40.069Z,39.19
2022-10-11T05:41:10.035Z,38.93
2022-10-11T05:43:38.032Z,39.10
2022-10-11T05:46:06.707Z,39.25
2022-10-11T05:48:35.020Z,39.19
2022-10-11T05:51:04.226Z,39.17
2022-10-11T05:53:32.582Z,39.28
2022-10-11T05:56:02.380Z,38.77
2022-10-11T05:58:31.402Z,39.23
2022-10-11T06:00:59.312Z,39.10
2022-10-11T06:03:27.447Z,38.97
2022-10-11T06:05:57.155Z,38.83
2022-10-11T06:08:25.224Z,38.96
2022-10-11T06:10:53.088Z,38.73
2022-10-11T06:13:22.420Z,38.83
2022-10-11T06:16:12.050Z,38.83
2022-10-11T06:18:40.226Z,38.61
2022-10-11T06:21:08.505Z,38.65
2022-10-11T06:23:36.433Z,38.58
2022-10-11T06:26:07.531Z,38.48
2022-10-11T06:28:38.192Z,38.75
2022-10-11T06:31:06.997Z,38.78
2022-10-11T06:33:35.024Z,38.48
2022-10-11T06:36:06.504Z,38.50
2022-10-11T06:38:35.314Z,38.66
2022-10-11T06:41:10.704Z,38.37
2022-10-11T06:43:40.041Z,38.31
2022-10-11T06:46:08.499Z,38.56
2022-10-11T06:48:40.881Z,38.29
2022-10-11T06:51:08.784Z,38.11
2022-10-11T06:53:36.956Z,38.29
2022-10-11T06:56:06.127Z,37.91
2022-10-11T06:58:34.393Z,38.11
2022-10-11T07:01:04.874Z,38.21
2022-10-11T07:03:33.084Z,38.08
2022-10-11T07:06:02.840Z,37.91
2022-10-11T07:08:31.385Z,37.96
2022-10-11T07:11:03.044Z,38.11
2022-10-11T07:13:31.300Z,38.08
2022-10-11T07:16:03.671Z,37.92
2022-10-11T07:18:32.360Z,38.16
2022-10-11T07:21:03.263Z,38.35
2022-10-11T07:23:31.152Z,38.19
2022-10-11T07:25:59.386Z,38.07
2022-10-11T07:28:28.831Z,38.06
2022-10-11T07:30:57.156Z,37.99
2022-10-11T07:33:26.433Z,37.86
2022-10-11T07:35:57.935Z,37.81
2022-10-11T07:38:25.922Z,37.53
2022-10-11T07:40:53.876Z,37.78
2022-10-11T07:43:21.753Z,37.56
2022-10-11T07:45:54.538Z,37.39
2022-10-11T07:48:22.697Z,37.52
2022-10-11T07:50:51.917Z,37.51
2022-10-11T07:53:19.913Z,37.38
2022-10-11T07:55:47.762Z,37.03
2022-10-11T07:58:15.720Z,37.14
2022-10-11T08:00:43.675Z,37.16
2022-10-11T08:03:11.627Z,36.88
2022-10-11T08:05:39.610Z,36.98
2022-10-11T08:08:08.888Z,36.94
2022-10-11T08:10:39.378Z,36.73
2022-10-11T08:13:07.457Z,36.84
2022-10-11T08:15:35.341Z,36.80
2022-10-11T08:18:03.274Z,36.55
2022-10-11T08:20:33.163Z,36.52
2022-10-11T08:23:01.291Z,36.41
2022-10-11T08:25:30.602Z,36.50
2022-10-11T08:27:58.476Z,36.76
2022-10-11T08:30:26.393Z,36.27
2022-10-11T08:32:54.289Z,36.31
2022-10-11T08:35:22.364Z,36.47
2022-10-11T08:37:50.247Z,36.43
2022-10-11T08:40:20.976Z,36.90
2022-10-11T08:42:57.033Z,38.39
2022-10-11T08:45:32.413Z,39.57
2022-10-11T08:48:09.526Z,40.23
2022-10-11T08:50:39.398Z,40.90
2022-10-11T08:53:14.510Z,40.59
2022-10-11T08:55:46.078Z,40.09
2022-10-11T08:58:19.157Z,39.53
2022-10-11T09:00:49.741Z,39.14
2022-10-11T09:03:29.538Z,38.63
2022-10-11T09:06:07.405Z,38.11
2022-10-11T09:08:46.919Z,37.75
2022-10-11T09:11:22.246Z,37.56
2022-10-11T09:14:06.949Z,37.26
2022-10-11T09:16:48.737Z,37.12
2022-10-11T09:19:43.022Z,36.64
2022-10-11T09:22:21.726Z,36.61
2022-10-11T09:25:12.524Z,36.38
2022-10-11T09:28:02.252Z,36.32
2022-10-11T09:30:33.570Z,36.17
2022-10-11T09:33:11.781Z,35.74
2022-10-11T09:35:43.961Z,35.99
2022-10-11T09:38:20.422Z,35.72
2022-10-11T09:41:00.030Z,35.53
2022-10-11T09:43:28.218Z,35.72
2022-10-11T09:45:57.490Z,35.49
2022-10-11T09:48:29.586Z,36.07
2022-10-11T09:51:03.928Z,36.21
2022-10-11T09:53:51.780Z,36.30
2022-10-11T09:56:19.784Z,36.36
2022-10-11T09:58:47.873Z,36.14
2022-10-11T10:01:28.287Z,35.89
2022-10-11T10:04:07.733Z,35.88
2022-10-11T10:06:35.910Z,35.81
2022-10-11T10:09:26.630Z,35.66
2022-10-11T10:11:55.396Z,35.52
2022-10-11T10:14:26.761Z,35.40
2022-10-11T10:17:04.359Z,35.29
2022-10-11T10:19:44.792Z,35.19
2022-10-11T10:22:19.902Z,35.05
2022-10-11T10:24:49.859Z,35.13
2022-10-11T10:27:22.002Z,34.76
2022-10-11T10:30:20.018Z,34.77
2022-10-11T10:32:55.729Z,34.62
2022-10-11T10:35:31.078Z,34.27
2022-10-11T10:38:08.069Z,34.50
2022-10-11T10:40:42.623Z,34.23
2022-10-11T10:43:16.633Z,34.17
2022-10-11T10:46:16.864Z,34.12
2022-10-11T10:51:53.034Z,33.85
2022-10-11T10:54:36.264Z,33.85
2022-10-11T10:57:12.038Z,33.86
2022-10-11T11:00:02.119Z,33.73
2022-10-11T11:02:41.367Z,33.98
2022-10-11T11:05:34.847Z,33.72
2022-10-11T11:08:12.116Z,33.60
2022-10-11T11:10:46.370Z,33.75
2022-10-11T11:13:22.125Z,33.70
2022-10-11T11:15:59.071Z,33.61
2022-10-11T11:18:30.557Z,33.73
2022-10-11T11:21:16.664Z,33.65
2022-10-11T11:23:54.208Z,33.72
2022-10-11T11:26:30.096Z,33.58
2022-10-11T11:29:09.973Z,33.55
2022-10-11T11:31:55.002Z,33.62
2022-10-11T11:34:26.691Z,33.57
2022-10-11T11:36:59.106Z,33.29
2022-10-11T11:39:32.306Z,33.42
2022-10-11T11:42:05.660Z,33.26
2022-10-11T11:44:37.776Z,33.24
2022-10-11T11:47:12.211Z,33.02
2022-10-11T11:52:26.377Z,32.97
2022-10-11T11:55:04.275Z,33.13
2022-10-11T11:57:50.159Z,33.00
2022-10-11T12:00:21.212Z,32.93
2022-10-11T12:02:54.255Z,32.81
2022-10-11T12:05:25.818Z,32.77
2022-10-11T12:07:58.528Z,32.67
2022-10-11T12:10:30.948Z,32.67
2022-10-11T12:13:21.476Z,32.50
2022-10-11T12:15:59.084Z,32.45
2022-10-11T12:18:27.957Z,32.34
2022-10-11T12:21:05.804Z,32.39
2022-10-11T12:23:46.897Z,32.47
2022-10-11T12:26:35.102Z,32.48
2022-10-11T12:29:28.865Z,32.38
2022-10-11T12:32:48.081Z,32.48
2022-10-11T12:35:54.982Z,32.38
2022-10-11T12:38:26.530Z,32.36
2022-10-11T12:40:57.250Z,32.34
2022-10-11T12:43:29.343Z,32.37
2022-10-11T12:45:57.613Z,32.56
2022-10-11T12:48:47.475Z,32.47
2022-10-11T12:51:33.789Z,32.50
2022-10-11T12:54:39.329Z,32.53
2022-10-11T12:57:56.587Z,32.59
2022-10-11T13:00:29.036Z,32.33
2022-10-11T13:02:58.283Z,32.44
2022-10-11T13:05:28.405Z,32.44
2022-10-11T13:07:59.166Z,31.95
2022-10-11T13:10:32.402Z,32.07
2022-10-11T13:13:04.386Z,32.14
2022-10-11T13:15:32.541Z,32.11
2022-10-11T13:18:02.169Z,32.35
2022-10-11T13:20:32.888Z,32.19
2022-10-11T13:23:00.805Z,32.21
2022-10-11T13:25:37.590Z,32.12
2022-10-11T13:28:10.586Z,32.12
2022-10-11T13:30:43.370Z,32.04
2022-10-11T13:33:21.021Z,31.81
2022-10-11T13:35:49.374Z,31.92
2022-10-11T13:38:21.763Z,31.84
2022-10-11T13:40:51.584Z,31.78
2022-10-11T13:43:23.837Z,31.69
2022-10-11T13:45:52.043Z,31.66
2022-10-11T13:48:20.048Z,31.66
2022-10-11T13:51:06.816Z,31.56
2022-10-11T13:53:35.076Z,31.68
2022-10-11T13:56:08.057Z,31.37
2022-10-11T13:58:41.113Z,31.63
2022-10-11T14:01:20.026Z,31.37
2022-10-11T14:03:56.021Z,31.48
2022-10-11T14:06:24.813Z,31.27
2022-10-11T14:08:56.453Z,31.40
2022-10-11T14:11:37.380Z,31.38
2022-10-11T14:14:30.078Z,31.35
2022-10-11T14:17:00.689Z,31.20
2022-10-11T14:19:28.580Z,31.46
2022-10-11T14:21:56.484Z,31.28
2022-10-11T14:24:24.673Z,31.33
2022-10-11T14:26:55.912Z,31.33
2022-10-11T14:29:27.155Z,31.14
2022-10-11T14:31:59.966Z,31.21
2022-10-11T14:34:28.603Z,31.23
2022-10-11T14:36:56.674Z,31.16
2022-10-11T14:39:27.106Z,31.09
2022-10-11T14:41:56.417Z,31.08
2022-10-11T14:44:24.340Z,31.12
2022-10-11T14:46:54.775Z,30.96
2022-10-11T14:49:25.720Z,31.05
2022-10-11T14:51:56.018Z,31.07
2022-10-11T14:54:25.376Z,30.91
2022-10-11T14:56:55.319Z,30.95
2022-10-11T14:59:27.443Z,31.05
2022-10-11T15:01:55.470Z,31.09
2022-10-11T15:04:25.293Z,31.02
2022-10-11T15:06:55.047Z,31.07
2022-10-11T15:09:23.346Z,31.15
2022-10-11T15:11:54.214Z,31.07
2022-10-11T15:14:24.605Z,30.91
2022-10-11T15:16:52.594Z,30.90
2022-10-11T15:19:22.639Z,30.82
2022-10-11T15:21:51.160Z,30.91
2022-10-11T15:24:20.804Z,30.99
2022-10-11T15:26:49.577Z,30.86
2022-10-11T15:29:18.935Z,31.13
2022-10-11T15:31:49.315Z,30.85
2022-10-11T15:34:17.784Z,30.93
2022-10-11T15:36:45.706Z,31.00
2022-10-11T15:39:25.054Z,30.76
2022-10-11T15:41:52.953Z,30.93
2022-10-11T15:44:20.945Z,30.84
2022-10-11T15:46:50.211Z,30.86
2022-10-11T15:49:18.767Z,30.98
2022-10-11T15:51:47.165Z,30.73
2022-10-11T15:54:15.046Z,30.58
2022-10-11T15:56:43.295Z,30.54
2022-10-11T15:59:12.718Z,30.43
2022-10-11T16:01:40.853Z,30.52
2022-10-11T16:04:10.705Z,30.55
2022-10-11T16:06:38.677Z,30.41
2022-10-11T16:09:06.765Z,30.64
2022-10-11T16:11:34.686Z,30.72
2022-10-11T16:14:02.582Z,30.55
2022-10-11T16:16:30.496Z,30.71
2022-10-11T16:18:58.370Z,30.52
2022-10-11T16:21:27.659Z,30.41
2022-10-11T16:23:55.557Z,30.42
2022-10-11T16:26:23.532Z,30.62
2022-10-11T16:28:51.508Z,30.54
2022-10-11T16:31:21.010Z,30.58
2022-10-11T16:33:50.210Z,30.50
2022-10-11T16:36:37.020Z,30.57
2022-10-11T16:39:10.037Z,30.31
2022-10-11T16:41:38.113Z,30.48
2022-10-11T16:44:06.722Z,30.48
2022-10-11T16:46:35.550Z,30.54
2022-10-11T16:49:03.958Z,30.50
2022-10-11T16:51:31.885Z,30.43
2022-10-11T16:53:59.837Z,30.44
2022-10-11T16:56:29.174Z,30.31
2022-10-11T16:58:57.177Z,30.47
2022-10-11T17:01:25.342Z,30.56
2022-10-11T17:03:54.022Z,30.60
2022-10-11T17:06:21.945Z,30.52
2022-10-11T17:08:50.041Z,30.36
2022-10-11T17:11:18.541Z,30.26
2022-10-11T17:13:49.058Z,30.44
2022-10-11T17:16:18.394Z,30.29
2022-10-11T17:18:46.504Z,30.24
2022-10-11T17:21:17.538Z,30.25
2022-10-11T17:23:46.512Z,30.44
2022-10-11T17:26:17.419Z,30.45
2022-10-11T17:28:47.477Z,30.50
2022-10-11T17:31:15.557Z,30.58
2022-10-11T17:33:43.485Z,30.54
2022-10-11T17:36:19.627Z,30.49
2022-10-11T17:38:47.698Z,30.56
2022-10-11T17:41:16.001Z,30.44
2022-10-11T17:43:44.651Z,30.42
2022-10-11T17:46:15.462Z,30.34
2022-10-11T17:48:44.652Z,30.42
2022-10-11T17:51:14.344Z,30.56
2022-10-11T17:53:43.145Z,30.51
2022-10-11T17:56:13.146Z,30.71
2022-10-11T17:58:41.417Z,30.41
2022-10-11T18:01:12.046Z,30.60
2022-10-11T18:03:42.881Z,30.47
2022-10-11T18:06:13.198Z,30.45
2022-10-11T18:08:42.211Z,30.41
2022-10-11T18:11:12.018Z,30.68
2022-10-11T18:13:42.804Z,30.44
2022-10-11T18:16:11.841Z,30.70
2022-10-11T18:18:42.371Z,30.83
2022-10-11T18:21:11.417Z,30.54
2022-10-11T18:23:39.874Z,30.47
2022-10-11T18:26:13.762Z,30.66
2022-10-11T18:28:42.889Z,30.61
2022-10-11T18:31:14.351Z,30.54
2022-10-11T18:33:46.115Z,30.41
2022-10-11T18:36:15.653Z,30.72
2022-10-11T18:38:47.181Z,30.32
2022-10-11T18:41:17.352Z,30.46
2022-10-11T18:43:49.941Z,30.27
2022-10-11T18:46:21.313Z,30.53
2022-10-11T18:48:53.011Z,30.51
2022-10-11T18:51:23.370Z,30.32
2022-10-11T18:53:51.807Z,30.57
2022-10-11T18:56:22.215Z,30.41
2022-10-11T18:58:51.626Z,30.29
2022-10-11T19:01:22.148Z,30.47
2022-10-11T19:03:53.975Z,30.46
2022-10-11T19:06:27.291Z,30.50
2022-10-11T19:09:00.219Z,30.18
2022-10-11T19:11:29.320Z,30.23
2022-10-11T19:13:59.222Z,30.47
2022-10-11T19:16:30.755Z,30.21
2022-10-11T19:19:00.951Z,30.51
2022-10-11T19:21:29.206Z,30.14
2022-10-11T19:23:57.534Z,30.36
2022-10-11T19:26:28.858Z,30.49
2022-10-11T19:28:58.342Z,30.29
2022-10-11T19:31:26.408Z,30.40
2022-10-11T19:33:55.291Z,30.26
2022-10-11T19:36:24.933Z,30.15
2022-10-11T19:38:56.813Z,30.36
2022-10-11T19:41:27.387Z,30.15
2022-10-11T19:43:58.081Z,30.25
2022-10-11T19:46:49.922Z,30.06
2022-10-11T19:49:17.611Z,30.14
2022-10-11T19:51:47.234Z,30.34
2022-10-11T19:54:15.800Z,30.59
2022-10-11T19:56:44.643Z,30.37
2022-10-11T19:59:13.778Z,30.52
2022-10-11T20:01:45.524Z,30.33
2022-10-11T20:04:33.571Z,30.88
2022-10-11T20:07:05.281Z,31.38
2022-10-11T20:09:33.161Z,31.46
2022-10-11T20:12:01.085Z,31.56
2022-10-11T20:14:28.977Z,31.63
2022-10-11T20:16:57.159Z,31.79
2022-10-11T20:19:30.701Z,31.80
2022-10-11T20:21:59.127Z,32.17
2022-10-11T20:24:32.618Z,32.61
2022-10-11T20:27:01.822Z,32.45
2022-10-11T20:29:29.691Z,32.43
2022-10-11T20:31:58.979Z,32.52
2022-10-11T20:34:27.665Z,32.51
2022-10-11T20:36:55.570Z,32.42
2022-10-11T20:39:23.763Z,32.65
2022-10-11T20:41:53.127Z,32.32
2022-10-11T20:44:21.000Z,32.25
2022-10-11T20:46:48.878Z,32.28
2022-10-11T20:49:19.813Z,32.10
2022-10-11T20:51:47.865Z,32.28
2022-10-11T20:54:16.213Z,32.18
2022-10-11T20:56:44.301Z,32.23
2022-10-11T20:59:13.557Z,32.24
2022-10-11T21:01:42.038Z,32.33
2022-10-11T21:04:17.353Z,32.04
2022-10-11T21:06:45.397Z,32.12
2022-10-11T21:09:15.655Z,31.91
2022-10-11T21:11:44.661Z,32.00
2022-10-11T21:14:14.199Z,31.99
2022-10-11T21:16:42.103Z,31.81
2022-10-11T21:19:15.042Z,31.88
2022-10-11T21:21:43.299Z,31.87
2022-10-11T21:24:11.442Z,31.76
2022-10-11T21:26:39.436Z,31.87
2022-10-11T21:29:08.437Z,31.83
2022-10-11T21:31:37.807Z,31.96
2022-10-11T21:34:07.402Z,32.15
2022-10-11T21:36:35.409Z,31.91
2022-10-11T21:39:03.719Z,31.97
2022-10-11T21:41:31.693Z,31.98
2022-10-11T21:43:59.715Z,32.01
2022-10-11T21:49:18.560Z,31.97
2022-10-11T21:51:46.738Z,31.92
2022-10-11T21:54:14.627Z,31.76
2022-10-11T21:56:42.893Z,31.80
2022-10-11T21:59:12.483Z,31.88
2022-10-11T22:01:41.735Z,31.68
2022-10-11T22:04:10.539Z,31.98
2022-10-11T22:06:40.236Z,32.05
2022-10-11T22:09:09.293Z,32.01
2022-10-11T22:11:37.205Z,31.85
2022-10-11T22:14:05.367Z,31.71
2022-10-11T22:16:34.307Z,31.68
2022-10-11T22:19:02.260Z,31.60
2022-10-11T22:21:30.326Z,31.69
2022-10-11T22:23:59.620Z,31.96
2022-10-11T22:26:30.731Z,31.80
2022-10-11T22:28:59.415Z,31.69
2022-10-11T22:31:27.582Z,31.84
2022-10-11T22:33:56.168Z,31.51
2022-10-11T22:36:25.128Z,31.48
2022-10-11T22:38:54.054Z,31.81
2022-10-11T22:41:23.877Z,31.72
2022-10-11T22:43:51.953Z,31.53
2022-10-11T22:46:20.215Z,31.95
2022-10-11T22:48:48.048Z,31.54
2022-10-11T22:51:16.071Z,31.55
2022-10-11T22:53:44.017Z,31.67
2022-10-11T22:56:12.214Z,31.56
2022-10-11T22:58:41.465Z,31.46
2022-10-11T23:01:10.141Z,31.65
2022-10-11T23:03:38.533Z,31.66
2022-10-11T23:06:07.009Z,31.50
2022-10-11T23:08:34.992Z,31.69
2022-10-11T23:11:07.194Z,31.55
2022-10-11T23:13:35.370Z,31.53
2022-10-11T23:16:08.359Z,31.40
2022-10-11T23:18:36.287Z,31.48
2022-10-11T23:21:05.633Z,31.47
2022-10-11T23:23:34.022Z,31.42
2022-10-11T23:26:07.142Z,31.31
2022-10-11T23:28:35.748Z,31.22
2022-10-11T23:31:09.461Z,31.30
2022-10-11T23:33:37.472Z,31.41
2022-10-11T23:36:06.625Z,31.13
2022-10-11T23:38:34.506Z,31.54
2022-10-11T23:41:02.408Z,31.38
2022-10-11T23:43:30.285Z,31.44
2022-10-11T23:45:58.188Z,31.40
2022-10-11T23:48:27.640Z,31.10
2022-10-11T23:50:55.509Z,31.43
2022-10-11T23:53:23.474Z,31.09
2022-10-11T23:55:51.906Z,31.27
2022-10-11T23:58:19.876Z,31.39
